Time,TemperatureF,DewpointF,PressureIn,WindDirection,WindDirectionDegrees,WindSpeedMPH,WindSpeedGustMPH,Humidity,HourlyPrecipIn,Conditions,Clouds,dailyrainin,SolarRadiationWatts/m^2,SoftwareType,DateUTC
2013-03-05 00:04:00,27.9,22.0,30.04,WNW,289,13.0,-999.0,78,-99.99,,,0.00,0,weatherlink.com 1.10,2013-03-05 05:04:00,
2013-03-05 00:19:00,27.8,22.0,30.03,WSW,244,12.0,-999.0,78,-99.99,,,0.00,0,weatherlink.com 1.10,2013-03-05 05:19:00,
2013-03-05 00:34:00,27.7,22.0,30.04,WNW,288,6.0,-999.0,78,-99.99,,,0.00,0,weatherlink.com 1.10,2013-03-05 05:34:00,
2013-03-05 00:49:00,27.6,22.0,30.04,West,267,7.0,-999.0,79,-99.99,,,0.00,0,weatherlink.com 1.10,2013-03-05 05:49:00,
2013-03-05 01:04:00,27.6,22.0,30.05,West,270,5.0,-999.0,79,-99.99,,,0.00,0,weatherlink.com 1.10,2013-03-05 06:04:00,
2013-03-05 01:19:00,27.5,22.0,30.05,West,275,3.0,-999.0,80,-99.99,,,0.00,0,weatherlink.com 1.10,2013-03-05 06:19:00,
2013-03-05 01:34:00,27.4,22.0,30.05,WSW,249,4.0,-999.0,80,-99.99,,,0.00,0,weatherlink.com 1.10,2013-03-05 06:34:00,
2013-03-05 01:49:00,27.2,22.0,30.06,West,271,5.0,-999.0,80,-99.99,,,0.00,0,weatherlink.com 1.10,2013-03-05 06:49:00,
2013-03-05 02:04:00,26.9,22.0,30.05,WSW,254,2.0,-999.0,81,-99.99,,,0.00,0,weatherlink.com 1.10,2013-03-05 07:04:00,
2013-03-05 02:19:00,26.7,22.0,30.05,West,259,4.0,-999.0,81,-99.99,,,0.00,0,weatherlink.com 1.10,2013-03-05 07:19:00,
2013-03-05 02:34:00,26.7,22.0,30.05,West,263,5.0,-999.0,81,-99.99,,,0.00,0,weatherlink.com 1.10,2013-03-05 07:34:00,
2013-03-05 02:49:00,26.6,22.0,30.05,WSW,250,5.0,-999.0,81,-99.99,,,0.00,0,weatherlink.com 1.10,2013-03-05 07:49:00,
2013-03-05 03:04:00,26.6,22.0,30.06,SW,220,6.0,-999.0,81,-99.99,,,0.00,0,weatherlink.com 1.10,2013-03-05 08:04:00,
2013-03-05 03:19:00,26.6,22.0,30.06,WSW,257,6.0,-999.0,81,-99.99,,,0.00,0,weatherlink.com 1.10,2013-03-05 08:19:00,
2013-03-05 03:34:00,26.5,21.0,30.06,WNW,282,5.0,-999.0,81,-99.99,,,0.00,0,weatherlink.com 1.10,2013-03-05 08:34:00,
2013-03-05 03:49:00,26.5,21.0,30.06,WSW,257,7.0,-999.0,81,-99.99,,,0.00,0,weatherlink.com 1.10,2013-03-05 08:49:00,
2013-03-05 04:04:00,26.5,21.0,30.06,West,279,6.0,-999.0,81,-99.99,,,0.00,0,weatherlink.com 1.10,2013-03-05 09:04:00,
2013-03-05 04:20:00,26.4,21.0,30.07,WSW,257,9.0,-999.0,80,-99.99,,,0.00,0,weatherlink.com 1.10,2013-03-05 09:20:00,
2013-03-05 04:35:00,26.3,21.0,30.08,WSW,244,8.0,-999.0,80,-99.99,,,0.00,0,weatherlink.com 1.10,2013-03-05 09:35:00,
2013-03-05 04:50:00,26.2,21.0,30.08,WSW,254,9.0,-999.0,80,-99.99,,,0.00,0,weatherlink.com 1.10,2013-03-05 09:50:00,
2013-03-05 05:05:00,26.2,21.0,30.08,WSW,250,7.0,-999.0,81,-99.99,,,0.00,0,weatherlink.com 1.10,2013-03-05 10:05:00,
2013-03-05 05:20:00,26.2,21.0,30.09,WSW,254,0.0,-999.0,81,-99.99,,,0.00,0,weatherlink.com 1.10,2013-03-05 10:20:00,
2013-03-05 05:35:00,26.2,21.0,30.09,WNW,282,5.0,-999.0,80,-99.99,,,0.00,0,weatherlink.com 1.10,2013-03-05 10:35:00,
2013-03-05 05:50:00,26.2,21.0,30.09,West,271,4.0,-999.0,80,-99.99,,,0.00,0,weatherlink.com 1.10,2013-03-05 10:50:00,
2013-03-05 06:05:00,26.1,21.0,30.09,West,271,4.0,-999.0,80,-99.99,,,0.00,0,weatherlink.com 1.10,2013-03-05 11:05:00,
2013-03-05 06:20:00,26.1,21.0,30.09,West,273,2.0,-999.0,80,-99.99,,,0.00,0,weatherlink.com 1.10,2013-03-05 11:20:00,
2013-03-05 06:35:00,26.1,21.0,30.09,West,261,2.0,-999.0,80,-99.99,,,0.00,0,weatherlink.com 1.10,2013-03-05 11:35:00,
2013-03-05 06:50:00,26.0,21.0,30.10,West,259,3.0,-999.0,81,-99.99,,,0.00,0,weatherlink.com 1.10,2013-03-05 11:50:00,
2013-03-05 07:05:00,-999.0,-99.9,30.10,North,-999,-999.0,-999.0,-999,-99.99,,,0.00,,weatherlink.com 1.10,2013-03-05 12:05:00,
2013-03-05 07:20:00,-999.0,-99.9,30.10,North,-999,-999.0,-999.0,-999,-99.99,,,0.00,,weatherlink.com 1.10,2013-03-05 12:20:00,
2013-03-05 07:35:00,-999.0,-99.9,30.10,North,-999,-999.0,-999.0,-999,-99.99,,,0.00,,weatherlink.com 1.10,2013-03-05 12:35:00,
2013-03-05 07:50:00,-999.0,-99.9,30.10,North,-999,-999.0,-999.0,-999,-99.99,,,0.00,,weatherlink.com 1.10,2013-03-05 12:50:00,
2013-03-05 08:05:00,-999.0,-99.9,30.10,North,-999,-999.0,-999.0,-999,-99.99,,,0.00,,weatherlink.com 1.10,2013-03-05 13:05:00,
2013-03-05 08:20:00,-999.0,-99.9,30.10,North,-999,-999.0,-999.0,-999,-99.99,,,0.00,,weatherlink.com 1.10,2013-03-05 13:20:00,
2013-03-05 08:35:00,26.1,22.0,30.10,WSW,240,2.0,-999.0,85,-99.99,,,0.00,111,weatherlink.com 1.10,2013-03-05 13:35:00,
2013-03-05 08:50:00,26.3,23.0,30.10,WSW,246,4.0,-999.0,86,-99.99,,,0.00,120,weatherlink.com 1.10,2013-03-05 13:50:00,
2013-03-05 09:05:00,26.5,23.0,30.10,WNW,297,1.0,-999.0,85,-99.99,,,0.00,148,weatherlink.com 1.10,2013-03-05 14:05:00,
2013-03-05 09:20:00,26.9,23.0,30.10,West,263,0.0,-999.0,85,-99.99,,,0.00,169,weatherlink.com 1.10,2013-03-05 14:20:00,
2013-03-05 09:35:00,27.2,23.0,30.10,West,277,2.0,-999.0,84,-99.99,,,0.00,190,weatherlink.com 1.10,2013-03-05 14:35:00,
2013-03-05 09:50:00,27.6,23.0,30.10,WSW,240,4.0,-999.0,84,-99.99,,,0.00,237,weatherlink.com 1.10,2013-03-05 14:50:00,
2013-03-05 10:05:00,28.1,23.6,30.10,WSW,240,2.0,2.0,83,0.00,,,0.00,237,Wunderground v.1.15,2013-03-05 15:05:00,
2013-03-05 10:20:00,28.1,23.0,30.10,WSW,254,2.0,-999.0,82,-99.99,,,0.00,218,weatherlink.com 1.10,2013-03-05 15:20:00,
2013-03-05 10:35:00,28.5,24.0,30.09,West,268,4.0,-999.0,82,-99.99,,,0.00,230,weatherlink.com 1.10,2013-03-05 15:35:00,
2013-03-05 10:50:00,29.0,24.0,30.09,West,269,0.0,-999.0,81,-99.99,,,0.00,206,weatherlink.com 1.10,2013-03-05 15:50:00,
2013-03-05 11:05:00,29.2,24.0,30.09,West,273,2.0,-999.0,80,-99.99,,,0.00,188,weatherlink.com 1.10,2013-03-05 16:05:00,
2013-03-05 11:20:00,29.3,24.0,30.09,West,274,3.0,-999.0,79,-99.99,,,0.00,190,weatherlink.com 1.10,2013-03-05 16:20:00,
2013-03-05 11:35:00,29.3,24.0,30.09,NNW,327,2.0,-999.0,80,-99.99,,,0.00,192,weatherlink.com 1.10,2013-03-05 16:35:00,
2013-03-05 11:50:00,29.3,24.0,30.09,NNW,327,1.0,-999.0,79,-99.99,,,0.01,192,weatherlink.com 1.10,2013-03-05 16:50:00,
2013-03-05 12:05:00,29.2,23.0,30.09,NNE,17,3.0,-999.0,78,-99.99,,,0.01,199,weatherlink.com 1.10,2013-03-05 17:05:00,
2013-03-05 12:20:00,29.6,23.0,30.09,NNE,32,0.0,-999.0,77,-99.99,,,0.01,236,weatherlink.com 1.10,2013-03-05 17:20:00,
2013-03-05 12:35:00,29.5,23.0,30.09,NNE,32,5.0,-999.0,77,-99.99,,,0.01,246,weatherlink.com 1.10,2013-03-05 17:35:00,
2013-03-05 12:50:00,29.5,23.0,30.09,ENE,59,5.0,-999.0,76,-99.99,,,0.01,241,weatherlink.com 1.10,2013-03-05 17:50:00,
2013-03-05 13:05:00,30.0,24.0,30.09,ENE,76,4.0,-999.0,77,-99.99,,,0.01,253,weatherlink.com 1.10,2013-03-05 18:05:00,
2013-03-05 13:20:00,30.5,24.0,30.09,East,98,6.0,-999.0,76,-99.99,,,0.01,258,weatherlink.com 1.10,2013-03-05 18:20:00,
2013-03-05 13:35:00,30.7,24.0,30.09,ESE,112,6.0,-999.0,76,-99.99,,,0.01,258,weatherlink.com 1.10,2013-03-05 18:35:00,
2013-03-05 13:50:00,30.4,23.0,30.09,SE,133,4.0,-999.0,75,-99.99,,,0.01,267,weatherlink.com 1.10,2013-03-05 18:50:00,
2013-03-05 14:05:00,30.5,24.0,30.09,East,90,0.0,-999.0,76,-99.99,,,0.01,272,weatherlink.com 1.10,2013-03-05 19:05:00,
2013-03-05 14:20:00,30.8,24.0,30.09,East,80,2.0,-999.0,76,-99.99,,,0.01,241,weatherlink.com 1.10,2013-03-05 19:20:00,
2013-03-05 14:35:00,30.9,24.0,30.08,ESE,123,3.0,-999.0,75,-99.99,,,0.01,250,weatherlink.com 1.10,2013-03-05 19:35:00,
2013-03-05 14:50:00,30.8,24.0,30.07,East,82,1.0,-999.0,75,-99.99,,,0.01,214,weatherlink.com 1.10,2013-03-05 19:50:00,
2013-03-05 15:05:00,31.1,24.0,30.07,East,80,1.0,-999.0,75,-99.99,,,0.02,204,weatherlink.com 1.10,2013-03-05 20:05:00,
2013-03-05 15:20:00,31.1,24.0,30.07,East,82,4.0,-999.0,75,-99.99,,,0.02,200,weatherlink.com 1.10,2013-03-05 20:20:00,
2013-03-05 15:36:00,30.9,24.0,30.07,ENE,78,2.0,-999.0,75,-99.99,,,0.02,195,weatherlink.com 1.10,2013-03-05 20:36:00,
2013-03-05 15:50:00,31.0,24.0,30.07,NE,40,5.0,-999.0,75,-99.99,,,0.02,167,weatherlink.com 1.10,2013-03-05 20:50:00,
2013-03-05 16:05:00,30.8,24.0,30.07,NE,52,2.0,-999.0,75,-99.99,,,0.02,135,weatherlink.com 1.10,2013-03-05 21:05:00,
2013-03-05 16:21:00,30.9,24.0,30.07,NE,52,4.0,-999.0,76,-99.99,,,0.02,121,weatherlink.com 1.10,2013-03-05 21:21:00,
2013-03-05 16:36:00,30.6,24.0,30.07,NNE,30,4.0,-999.0,76,-99.99,,,0.02,102,weatherlink.com 1.10,2013-03-05 21:36:00,
2013-03-05 16:51:00,30.3,24.0,30.06,NE,49,5.0,-999.0,77,-99.99,,,0.02,81,weatherlink.com 1.10,2013-03-05 21:51:00,
2013-03-05 17:06:00,30.3,24.0,30.06,NE,46,4.0,-999.0,77,-99.99,,,0.02,58,weatherlink.com 1.10,2013-03-05 22:06:00,
2013-03-05 17:21:00,30.4,24.0,30.05,ENE,65,7.0,-999.0,77,-99.99,,,0.02,40,weatherlink.com 1.10,2013-03-05 22:21:00,
2013-03-05 17:36:00,30.1,24.0,30.05,ENE,71,6.0,-999.0,77,-99.99,,,0.02,21,weatherlink.com 1.10,2013-03-05 22:36:00,
2013-03-05 17:51:00,29.9,24.0,30.05,NE,37,5.0,-999.0,78,-99.99,,,0.02,12,weatherlink.com 1.10,2013-03-05 22:51:00,
2013-03-05 18:06:00,29.6,24.0,30.05,NE,51,2.0,-999.0,78,-99.99,,,0.02,0,weatherlink.com 1.10,2013-03-05 23:06:00,
2013-03-05 18:21:00,29.0,23.0,30.05,NNE,22,1.0,-999.0,78,-99.99,,,0.02,0,weatherlink.com 1.10,2013-03-05 23:21:00,
2013-03-05 18:36:00,28.4,22.0,30.05,North,5,3.0,-999.0,78,-99.99,,,0.02,0,weatherlink.com 1.10,2013-03-05 23:36:00,
2013-03-05 18:51:00,28.1,22.0,30.05,North,5,2.0,-999.0,79,-99.99,,,0.02,0,weatherlink.com 1.10,2013-03-05 23:51:00,
2013-03-05 19:06:00,27.8,22.0,30.05,NNE,12,2.0,-999.0,79,-99.99,,,0.02,0,weatherlink.com 1.10,2013-03-06 00:06:00,
2013-03-05 19:21:00,27.5,22.0,30.05,NNE,12,2.0,-999.0,80,-99.99,,,0.02,0,weatherlink.com 1.10,2013-03-06 00:21:00,
2013-03-05 19:36:00,27.1,22.0,30.05,NNE,12,5.0,-999.0,81,-99.99,,,0.02,0,weatherlink.com 1.10,2013-03-06 00:36:00,
2013-03-05 19:51:00,26.8,22.0,30.05,North,11,2.0,-999.0,82,-99.99,,,0.02,0,weatherlink.com 1.10,2013-03-06 00:51:00,
2013-03-05 20:06:00,26.5,22.0,30.05,NNE,12,0.0,-999.0,82,-99.99,,,0.02,0,weatherlink.com 1.10,2013-03-06 01:06:00,
2013-03-05 20:21:00,26.3,22.0,30.05,NNE,12,0.0,-999.0,83,-99.99,,,0.02,0,weatherlink.com 1.10,2013-03-06 01:21:00,
2013-03-05 20:36:00,25.9,21.0,30.05,NNE,12,0.0,-999.0,83,-99.99,,,0.02,0,weatherlink.com 1.10,2013-03-06 01:36:00,
2013-03-05 20:51:00,25.4,21.0,30.05,NNE,12,0.0,-999.0,83,-99.99,,,0.02,0,weatherlink.com 1.10,2013-03-06 01:51:00,
2013-03-05 21:06:00,25.0,21.0,30.05,NNE,12,0.0,-999.0,83,-99.99,,,0.02,0,weatherlink.com 1.10,2013-03-06 02:06:00,
2013-03-05 21:21:00,24.4,20.0,30.04,NNE,12,0.0,-999.0,83,-99.99,,,0.02,0,weatherlink.com 1.10,2013-03-06 02:21:00,
2013-03-05 21:36:00,23.8,20.0,30.04,NNE,12,0.0,-999.0,84,-99.99,,,0.02,0,weatherlink.com 1.10,2013-03-06 02:36:00,
2013-03-05 21:51:00,23.2,19.0,30.03,NNE,12,0.0,-999.0,85,-99.99,,,0.02,0,weatherlink.com 1.10,2013-03-06 02:51:00,
2013-03-05 22:06:00,23.2,20.0,30.02,NNE,12,0.0,-999.0,87,-99.99,,,0.02,0,weatherlink.com 1.10,2013-03-06 03:06:00,
2013-03-05 22:21:00,23.3,20.0,30.01,NNE,13,1.0,-999.0,87,-99.99,,,0.02,0,weatherlink.com 1.10,2013-03-06 03:21:00,
2013-03-05 22:36:00,23.3,20.0,30.01,NNE,13,0.0,-999.0,87,-99.99,,,0.02,0,weatherlink.com 1.10,2013-03-06 03:36:00,
2013-03-05 22:51:00,23.4,20.0,30.00,NNE,13,0.0,-999.0,88,-99.99,,,0.02,0,weatherlink.com 1.10,2013-03-06 03:51:00,
2013-03-05 23:06:00,23.2,20.0,30.00,NNE,13,0.0,-999.0,87,-99.99,,,0.02,0,weatherlink.com 1.10,2013-03-06 04:06:00,
2013-03-05 23:21:00,23.1,20.0,30.00,NNE,13,0.0,-999.0,88,-99.99,,,0.02,0,weatherlink.com 1.10,2013-03-06 04:21:00,
2013-03-05 23:36:00,23.6,21.0,29.99,NNE,13,5.0,-999.0,88,-99.99,,,0.02,0,weatherlink.com 1.10,2013-03-06 04:36:00,
2013-03-05 23:51:00,23.6,21.0,29.99,NNE,13,0.0,-999.0,88,-99.99,,,0.02,0,weatherlink.com 1.10,2013-03-06 04:51:00,